sensor_id;sensor_type;location;lat;lon;timestamp;pressure;altitude;pressure_sealevel;temperature;humidity
11676;BME280;5894;42.768;23.404;2023-03-23T00:01:04;95639.22;;;6.92;100.00
11676;BME280;5894;42.768;23.404;2023-03-23T00:03:31;95639.50;;;6.90;100.00
11676;BME280;5894;42.768;23.404;2023-03-23T00:05:58;95590.63;;;6.42;100.00
11676;BME280;5894;42.768;23.404;2023-03-23T00:08:30;95633.84;;;6.78;100.00
11676;BME280;5894;42.768;23.404;2023-03-23T00:10:57;95633.81;;;6.83;100.00
11676;BME280;5894;42.768;23.404;2023-03-23T00:13:28;95629.09;;;6.80;100.00
11676;BME280;5894;42.768;23.404;2023-03-23T00:15:56;95633.22;;;6.86;100.00
11676;BME280;5894;42.768;23.404;2023-03-23T00:18:25;95650.16;;;6.70;100.00
11676;BME280;5894;42.768;23.404;2023-03-23T00:20:54;95637.94;;;6.16;100.00
11676;BME280;5894;42.768;23.404;2023-03-23T00:23:22;95655.06;;;5.99;100.00
11676;BME280;5894;42.768;23.404;2023-03-23T00:25:50;95648.53;;;5.96;100.00
11676;BME280;5894;42.768;23.404;2023-03-23T00:28:19;95655.59;;;5.96;100.00
11676;BME280;5894;42.768;23.404;2023-03-23T00:31:01;95597.03;;;5.71;100.00
11676;BME280;5894;42.768;23.404;2023-03-23T00:33:31;95619.78;;;5.91;100.00
11676;BME280;5894;42.768;23.404;2023-03-23T00:36:03;95614.25;;;5.93;100.00
11676;BME280;5894;42.768;23.404;2023-03-23T00:38:31;95646.38;;;6.03;100.00
11676;BME280;5894;42.768;23.404;2023-03-23T00:40:58;95598.84;;;5.81;100.00
11676;BME280;5894;42.768;23.404;2023-03-23T00:43:28;95663.38;;;6.11;100.00
11676;BME280;5894;42.768;23.404;2023-03-23T00:45:56;95663.84;;;6.18;100.00
11676;BME280;5894;42.768;23.404;2023-03-23T00:48:29;95663.59;;;6.14;100.00
11676;BME280;5894;42.768;23.404;2023-03-23T00:50:58;95653.13;;;6.19;100.00
11676;BME280;5894;42.768;23.404;2023-03-23T00:53:26;95652.38;;;6.09;100.00
11676;BME280;5894;42.768;23.404;2023-03-23T00:55:53;95660.97;;;6.14;100.00
11676;BME280;5894;42.768;23.404;2023-03-23T00:58:20;95661.75;;;6.20;100.00
11676;BME280;5894;42.768;23.404;2023-03-23T01:00:47;95645.78;;;6.21;100.00
11676;BME280;5894;42.768;23.404;2023-03-23T01:03:14;95648.72;;;6.10;100.00
11676;BME280;5894;42.768;23.404;2023-03-23T01:05:45;95652.50;;;5.88;100.00
11676;BME280;5894;42.768;23.404;2023-03-23T01:08:14;95601.88;;;5.44;100.00
11676;BME280;5894;42.768;23.404;2023-03-23T01:10:41;95649.94;;;5.68;100.00
11676;BME280;5894;42.768;23.404;2023-03-23T01:13:10;95633.19;;;5.69;100.00
11676;BME280;5894;42.768;23.404;2023-03-23T01:15:37;95631.06;;;5.76;100.00
11676;BME280;5894;42.768;23.404;2023-03-23T01:18:04;95644.59;;;5.94;100.00
11676;BME280;5894;42.768;23.404;2023-03-23T01:20:31;95646.72;;;5.86;100.00
11676;BME280;5894;42.768;23.404;2023-03-23T01:23:00;95639.13;;;5.85;100.00
11676;BME280;5894;42.768;23.404;2023-03-23T01:25:28;95634.66;;;5.85;100.00
11676;BME280;5894;42.768;23.404;2023-03-23T01:27:56;95565.25;;;5.44;100.00
11676;BME280;5894;42.768;23.404;2023-03-23T01:30:24;95623.69;;;5.83;100.00
11676;BME280;5894;42.768;23.404;2023-03-23T01:32:52;95648.28;;;5.87;100.00
11676;BME280;5894;42.768;23.404;2023-03-23T01:35:19;95639.16;;;5.75;100.00
11676;BME280;5894;42.768;23.404;2023-03-23T01:37:46;95640.78;;;5.71;100.00
11676;BME280;5894;42.768;23.404;2023-03-23T01:40:16;95632.19;;;5.60;100.00
11676;BME280;5894;42.768;23.404;2023-03-23T01:42:43;95642.31;;;5.72;100.00
11676;BME280;5894;42.768;23.404;2023-03-23T01:45:26;95631.91;;;5.57;100.00
11676;BME280;5894;42.768;23.404;2023-03-23T01:48:04;95637.63;;;5.69;100.00
11676;BME280;5894;42.768;23.404;2023-03-23T01:50:37;95612.56;;;5.52;100.00
11676;BME280;5894;42.768;23.404;2023-03-23T01:53:08;95590.97;;;5.22;100.00
11676;BME280;5894;42.768;23.404;2023-03-23T01:55:41;95639.25;;;5.54;100.00
11676;BME280;5894;42.768;23.404;2023-03-23T01:58:10;95642.34;;;5.62;100.00
11676;BME280;5894;42.768;23.404;2023-03-23T02:00:38;95640.56;;;5.52;100.00
11676;BME280;5894;42.768;23.404;2023-03-23T02:03:09;95646.53;;;5.68;100.00
11676;BME280;5894;42.768;23.404;2023-03-23T02:05:40;95635.31;;;5.57;100.00
11676;BME280;5894;42.768;23.404;2023-03-23T02:08:17;95645.72;;;5.72;100.00
11676;BME280;5894;42.768;23.404;2023-03-23T02:10:46;95640.50;;;5.67;100.00
11676;BME280;5894;42.768;23.404;2023-03-23T02:13:14;95637.91;;;5.62;100.00
11676;BME280;5894;42.768;23.404;2023-03-23T02:15:47;95643.13;;;5.67;100.00
11676;BME280;5894;42.768;23.404;2023-03-23T02:18:25;95630.06;;;5.62;100.00
11676;BME280;5894;42.768;23.404;2023-03-23T02:27:01;95645.00;;;5.51;100.00
11676;BME280;5894;42.768;23.404;2023-03-23T02:29:58;95612.91;;;5.31;100.00
11676;BME280;5894;42.768;23.404;2023-03-23T02:35:40;95615.38;;;4.71;100.00
11676;BME280;5894;42.768;23.404;2023-03-23T02:38:13;95649.34;;;4.87;100.00
11676;BME280;5894;42.768;23.404;2023-03-23T02:40:43;95654.03;;;4.85;100.00
11676;BME280;5894;42.768;23.404;2023-03-23T02:43:14;95638.09;;;4.76;100.00
11676;BME280;5894;42.768;23.404;2023-03-23T02:45:43;95656.66;;;4.85;100.00
11676;BME280;5894;42.768;23.404;2023-03-23T02:48:13;95663.19;;;4.87;100.00
11676;BME280;5894;42.768;23.404;2023-03-23T02:50:45;95638.09;;;4.86;100.00
11676;BME280;5894;42.768;23.404;2023-03-23T02:53:16;95619.53;;;4.72;100.00
11676;BME280;5894;42.768;23.404;2023-03-23T02:55:45;95602.56;;;4.70;100.00
11676;BME280;5894;42.768;23.404;2023-03-23T02:58:17;95655.03;;;5.14;100.00
11676;BME280;5894;42.768;23.404;2023-03-23T03:00:44;95637.03;;;5.02;100.00
11676;BME280;5894;42.768;23.404;2023-03-23T03:03:16;95617.44;;;4.95;100.00
11676;BME280;5894;42.768;23.404;2023-03-23T03:05:53;95670.72;;;5.24;100.00
11676;BME280;5894;42.768;23.404;2023-03-23T03:08:26;95676.19;;;5.23;100.00
11676;BME280;5894;42.768;23.404;2023-03-23T03:10:57;95687.44;;;5.23;100.00
11676;BME280;5894;42.768;23.404;2023-03-23T03:13:35;95684.09;;;4.87;100.00
11676;BME280;5894;42.768;23.404;2023-03-23T03:16:15;95683.78;;;4.89;100.00
11676;BME280;5894;42.768;23.404;2023-03-23T03:18:48;95692.69;;;4.93;100.00
11676;BME280;5894;42.768;23.404;2023-03-23T03:21:21;95692.44;;;4.89;100.00
11676;BME280;5894;42.768;23.404;2023-03-23T03:23:54;95692.19;;;4.96;100.00
11676;BME280;5894;42.768;23.404;2023-03-23T03:26:25;95627.66;;;4.66;100.00
11676;BME280;5894;42.768;23.404;2023-03-23T03:28:58;95686.13;;;5.21;100.00
11676;BME280;5894;42.768;23.404;2023-03-23T03:31:28;95682.47;;;5.27;100.00
11676;BME280;5894;42.768;23.404;2023-03-23T03:33:56;95680.94;;;5.15;100.00
11676;BME280;5894;42.768;23.404;2023-03-23T03:36:28;95689.50;;;5.31;100.00
11676;BME280;5894;42.768;23.404;2023-03-23T03:39:02;95683.25;;;5.37;100.00
11676;BME280;5894;42.768;23.404;2023-03-23T03:41:33;95678.28;;;5.36;100.00
11676;BME280;5894;42.768;23.404;2023-03-23T03:44:00;95683.75;;;5.44;100.00
11676;BME280;5894;42.768;23.404;2023-03-23T03:46:27;95689.50;;;5.36;100.00
11676;BME280;5894;42.768;23.404;2023-03-23T03:48:57;95635.22;;;4.93;100.00
11676;BME280;5894;42.768;23.404;2023-03-23T03:51:26;95686.63;;;5.33;100.00
11676;BME280;5894;42.768;23.404;2023-03-23T03:53:54;95690.56;;;5.25;100.00
11676;BME280;5894;42.768;23.404;2023-03-23T03:56:22;95686.91;;;5.36;100.00
11676;BME280;5894;42.768;23.404;2023-03-23T03:59:02;95688.44;;;5.47;100.00
11676;BME280;5894;42.768;23.404;2023-03-23T04:02:08;95690.00;;;5.53;100.00
11676;BME280;5894;42.768;23.404;2023-03-23T04:04:35;95685.03;;;5.57;100.00
11676;BME280;5894;42.768;23.404;2023-03-23T04:07:03;95684.47;;;5.65;100.00
11676;BME280;5894;42.768;23.404;2023-03-23T04:09:30;95615.56;;;5.15;100.00
11676;BME280;5894;42.768;23.404;2023-03-23T04:11:58;95681.31;;;5.68;100.00
11676;BME280;5894;42.768;23.404;2023-03-23T04:14:43;95686.78;;;5.72;100.00
11676;BME280;5894;42.768;23.404;2023-03-23T04:17:10;95663.78;;;5.64;100.00
11676;BME280;5894;42.768;23.404;2023-03-23T04:19:37;95575.34;;;5.06;100.00
11676;BME280;5894;42.768;23.404;2023-03-23T04:22:07;95693.09;;;5.71;100.00
11676;BME280;5894;42.768;23.404;2023-03-23T04:24:36;95654.19;;;5.44;100.00
11676;BME280;5894;42.768;23.404;2023-03-23T04:27:07;95685.47;;;5.74;100.00
11676;BME280;5894;42.768;23.404;2023-03-23T04:29:34;95696.22;;;5.78;100.00
11676;BME280;5894;42.768;23.404;2023-03-23T04:32:30;95680.81;;;5.61;100.00
11676;BME280;5894;42.768;23.404;2023-03-23T04:34:58;95638.97;;;5.51;100.00
11676;BME280;5894;42.768;23.404;2023-03-23T04:37:33;95690.69;;;5.89;100.00
11676;BME280;5894;42.768;23.404;2023-03-23T04:40:04;95639.56;;;5.38;100.00
11676;BME280;5894;42.768;23.404;2023-03-23T04:42:37;95696.47;;;5.76;100.00
11676;BME280;5894;42.768;23.404;2023-03-23T04:45:23;95698.56;;;5.79;100.00
11676;BME280;5894;42.768;23.404;2023-03-23T04:47:52;95657.84;;;5.43;100.00
11676;BME280;5894;42.768;23.404;2023-03-23T04:50:29;95685.25;;;5.71;100.00
11676;BME280;5894;42.768;23.404;2023-03-23T04:53:04;95707.47;;;5.78;100.00
11676;BME280;5894;42.768;23.404;2023-03-23T04:55:33;95704.03;;;5.83;100.00
11676;BME280;5894;42.768;23.404;2023-03-23T04:58:01;95704.56;;;5.90;100.00
11676;BME280;5894;42.768;23.404;2023-03-23T05:00:40;95703.78;;;5.89;100.00
11676;BME280;5894;42.768;23.404;2023-03-23T05:03:10;95712.16;;;5.92;100.00
11676;BME280;5894;42.768;23.404;2023-03-23T05:05:37;95716.06;;;5.84;100.00
11676;BME280;5894;42.768;23.404;2023-03-23T05:08:08;95702.47;;;5.82;100.00
11676;BME280;5894;42.768;23.404;2023-03-23T05:10:38;95710.81;;;5.99;100.00
11676;BME280;5894;42.768;23.404;2023-03-23T05:13:10;95715.81;;;5.91;100.00
11676;BME280;5894;42.768;23.404;2023-03-23T05:15:37;95712.44;;;5.90;100.00
11676;BME280;5894;42.768;23.404;2023-03-23T05:18:05;95721.56;;;5.82;100.00
11676;BME280;5894;42.768;23.404;2023-03-23T05:20:33;95719.25;;;5.71;100.00
11676;BME280;5894;42.768;23.404;2023-03-23T05:23:09;95725.22;;;5.86;100.00
11676;BME280;5894;42.768;23.404;2023-03-23T05:25:37;95727.59;;;5.88;100.00
11676;BME280;5894;42.768;23.404;2023-03-23T05:28:18;95724.44;;;5.86;100.00
11676;BME280;5894;42.768;23.404;2023-03-23T05:30:53;95737.56;;;5.91;100.00
11676;BME280;5894;42.768;23.404;2023-03-23T05:33:22;95730.75;;;5.90;100.00
11676;BME280;5894;42.768;23.404;2023-03-23T05:36:04;95722.88;;;5.85;100.00
11676;BME280;5894;42.768;23.404;2023-03-23T05:38:47;95738.03;;;5.98;100.00
11676;BME280;5894;42.768;23.404;2023-03-23T05:41:16;95708.50;;;5.77;100.00
11676;BME280;5894;42.768;23.404;2023-03-23T05:43:43;95711.09;;;5.87;100.00
11676;BME280;5894;42.768;23.404;2023-03-23T05:46:22;95727.22;;;6.15;100.00
11676;BME280;5894;42.768;23.404;2023-03-23T05:48:50;95747.06;;;6.31;100.00
11676;BME280;5894;42.768;23.404;2023-03-23T05:51:21;95716.75;;;6.20;100.00
11676;BME280;5894;42.768;23.404;2023-03-23T05:53:50;95737.88;;;6.39;100.00
11676;BME280;5894;42.768;23.404;2023-03-23T05:56:17;95752.16;;;6.56;100.00
11676;BME280;5894;42.768;23.404;2023-03-23T05:59:07;95745.88;;;6.57;100.00
11676;BME280;5894;42.768;23.404;2023-03-23T06:01:35;95747.97;;;6.60;100.00
11676;BME280;5894;42.768;23.404;2023-03-23T06:04:02;95761.00;;;6.71;100.00
11676;BME280;5894;42.768;23.404;2023-03-23T06:06:39;95753.59;;;6.83;100.00
11676;BME280;5894;42.768;23.404;2023-03-23T06:09:10;95744.22;;;6.72;100.00
11676;BME280;5894;42.768;23.404;2023-03-23T06:11:56;95763.22;;;6.92;100.00
11676;BME280;5894;42.768;23.404;2023-03-23T06:14:34;95763.09;;;7.08;100.00
11676;BME280;5894;42.768;23.404;2023-03-23T06:17:02;95749.78;;;7.04;100.00
11676;BME280;5894;42.768;23.404;2023-03-23T06:19:29;95745.59;;;6.98;100.00
11676;BME280;5894;42.768;23.404;2023-03-23T06:22:04;95766.16;;;7.25;100.00
11676;BME280;5894;42.768;23.404;2023-03-23T06:25:02;95760.03;;;7.34;100.00
11676;BME280;5894;42.768;23.404;2023-03-23T06:27:37;95751.56;;;7.43;100.00
11676;BME280;5894;42.768;23.404;2023-03-23T06:30:04;95753.63;;;7.46;100.00
11676;BME280;5894;42.768;23.404;2023-03-23T06:32:32;95759.78;;;7.60;100.00
11676;BME280;5894;42.768;23.404;2023-03-23T06:35:01;95760.81;;;7.64;100.00
11676;BME280;5894;42.768;23.404;2023-03-23T06:37:31;95754.13;;;7.77;100.00
11676;BME280;5894;42.768;23.404;2023-03-23T06:40:20;95759.88;;;7.79;100.00
11676;BME280;5894;42.768;23.404;2023-03-23T06:42:54;95749.34;;;7.55;100.00
11676;BME280;5894;42.768;23.404;2023-03-23T06:45:38;95762.09;;;7.90;100.00
11676;BME280;5894;42.768;23.404;2023-03-23T06:48:23;95665.59;;;7.34;100.00
11676;BME280;5894;42.768;23.404;2023-03-23T06:50:50;95762.56;;;7.97;100.00
11676;BME280;5894;42.768;23.404;2023-03-23T06:53:19;95769.75;;;8.10;100.00
11676;BME280;5894;42.768;23.404;2023-03-23T06:55:49;95779.31;;;8.25;100.00
11676;BME280;5894;42.768;23.404;2023-03-23T06:58:17;95774.22;;;8.39;100.00
11676;BME280;5894;42.768;23.404;2023-03-23T07:00:44;95776.91;;;8.53;100.00
11676;BME280;5894;42.768;23.404;2023-03-23T07:03:13;95781.25;;;8.62;100.00
11676;BME280;5894;42.768;23.404;2023-03-23T07:05:40;95775.72;;;8.64;100.00
11676;BME280;5894;42.768;23.404;2023-03-23T07:08:10;95761.09;;;8.58;100.00
11676;BME280;5894;42.768;23.404;2023-03-23T07:10:52;95780.81;;;8.55;100.00
11676;BME280;5894;42.768;23.404;2023-03-23T07:13:24;95781.56;;;8.61;100.00
11676;BME280;5894;42.768;23.404;2023-03-23T07:15:55;95782.34;;;8.61;100.00
11676;BME280;5894;42.768;23.404;2023-03-23T07:18:22;95782.69;;;8.73;100.00
11676;BME280;5894;42.768;23.404;2023-03-23T07:20:52;95774.31;;;8.71;100.00
11676;BME280;5894;42.768;23.404;2023-03-23T07:23:22;95778.34;;;8.82;100.00
11676;BME280;5894;42.768;23.404;2023-03-23T07:26:11;95783.00;;;8.91;100.00
11676;BME280;5894;42.768;23.404;2023-03-23T07:28:45;95779.16;;;9.02;100.00
11676;BME280;5894;42.768;23.404;2023-03-23T07:31:30;95784.25;;;9.12;100.00
11676;BME280;5894;42.768;23.404;2023-03-23T07:33:57;95762.72;;;9.10;100.00
11676;BME280;5894;42.768;23.404;2023-03-23T07:36:35;95791.84;;;9.32;100.00
11676;BME280;5894;42.768;23.404;2023-03-23T07:39:05;95762.97;;;9.27;100.00
11676;BME280;5894;42.768;23.404;2023-03-23T07:41:33;95788.38;;;9.50;100.00
11676;BME280;5894;42.768;23.404;2023-03-23T07:44:13;95793.19;;;9.62;100.00
11676;BME280;5894;42.768;23.404;2023-03-23T07:46:42;95787.56;;;9.69;100.00
11676;BME280;5894;42.768;23.404;2023-03-23T07:49:13;95688.16;;;9.14;100.00
11676;BME280;5894;42.768;23.404;2023-03-23T07:51:45;95789.34;;;9.87;100.00
11676;BME280;5894;42.768;23.404;2023-03-23T07:54:14;95794.75;;;9.96;100.00
11676;BME280;5894;42.768;23.404;2023-03-23T07:56:58;95790.34;;;10.05;100.00
11676;BME280;5894;42.768;23.404;2023-03-23T07:59:28;95776.56;;;10.08;100.00
11676;BME280;5894;42.768;23.404;2023-03-23T08:01:57;95789.19;;;10.11;100.00
11676;BME280;5894;42.768;23.404;2023-03-23T08:04:42;95782.44;;;10.05;100.00
11676;BME280;5894;42.768;23.404;2023-03-23T08:07:13;95774.53;;;9.91;100.00
11676;BME280;5894;42.768;23.404;2023-03-23T08:10:02;95795.91;;;10.03;100.00
11676;BME280;5894;42.768;23.404;2023-03-23T08:12:53;95800.00;;;10.09;100.00
11676;BME280;5894;42.768;23.404;2023-03-23T08:15:59;95746.97;;;9.70;100.00
11676;BME280;5894;42.768;23.404;2023-03-23T08:18:47;95785.09;;;10.05;100.00
11676;BME280;5894;42.768;23.404;2023-03-23T08:21:29;95787.31;;;10.11;100.00
11676;BME280;5894;42.768;23.404;2023-03-23T08:24:31;95797.22;;;10.19;100.00
11676;BME280;5894;42.768;23.404;2023-03-23T08:27:20;95787.81;;;10.13;100.00
11676;BME280;5894;42.768;23.404;2023-03-23T08:30:24;95780.31;;;10.20;100.00
11676;BME280;5894;42.768;23.404;2023-03-23T08:33:20;95787.06;;;10.40;100.00
11676;BME280;5894;42.768;23.404;2023-03-23T08:36:09;95779.75;;;10.37;100.00
11676;BME280;5894;42.768;23.404;2023-03-23T08:38:52;95791.91;;;10.74;100.00
11676;BME280;5894;42.768;23.404;2023-03-23T08:41:28;95792.38;;;10.90;100.00
11676;BME280;5894;42.768;23.404;2023-03-23T08:44:17;95789.97;;;11.02;100.00
11676;BME280;5894;42.768;23.404;2023-03-23T08:46:58;95789.16;;;11.15;100.00
11676;BME280;5894;42.768;23.404;2023-03-23T08:49:58;95754.00;;;11.06;100.00
11676;BME280;5894;42.768;23.404;2023-03-23T08:52:34;95785.94;;;11.40;100.00
11676;BME280;5894;42.768;23.404;2023-03-23T08:55:14;95783.22;;;11.54;100.00
11676;BME280;5894;42.768;23.404;2023-03-23T08:57:56;95796.91;;;11.79;100.00
11676;BME280;5894;42.768;23.404;2023-03-23T09:00:46;95794.03;;;11.89;100.00
11676;BME280;5894;42.768;23.404;2023-03-23T09:03:26;95792.63;;;11.91;100.00
11676;BME280;5894;42.768;23.404;2023-03-23T09:06:14;95782.84;;;11.92;100.00
11676;BME280;5894;42.768;23.404;2023-03-23T09:08:44;95790.66;;;12.05;100.00
11676;BME280;5894;42.768;23.404;2023-03-23T09:11:11;95791.19;;;12.16;100.00
11676;BME280;5894;42.768;23.404;2023-03-23T09:13:39;95791.50;;;12.15;100.00
11676;BME280;5894;42.768;23.404;2023-03-23T09:16:07;95796.31;;;12.12;100.00
11676;BME280;5894;42.768;23.404;2023-03-23T09:18:36;95760.63;;;11.93;100.00
11676;BME280;5894;42.768;23.404;2023-03-23T09:21:03;95791.06;;;12.21;100.00
11676;BME280;5894;42.768;23.404;2023-03-23T09:23:30;95796.41;;;12.38;100.00
11676;BME280;5894;42.768;23.404;2023-03-23T09:25:59;95800.81;;;12.52;100.00
11676;BME280;5894;42.768;23.404;2023-03-23T09:28:27;95790.53;;;12.59;100.00
11676;BME280;5894;42.768;23.404;2023-03-23T09:30:56;95786.38;;;12.75;100.00
11676;BME280;5894;42.768;23.404;2023-03-23T09:33:25;95794.34;;;12.83;100.00
11676;BME280;5894;42.768;23.404;2023-03-23T09:35:53;95795.72;;;12.90;100.00
11676;BME280;5894;42.768;23.404;2023-03-23T09:38:20;95787.03;;;12.98;100.00
11676;BME280;5894;42.768;23.404;2023-03-23T09:40:49;95781.09;;;13.09;100.00
11676;BME280;5894;42.768;23.404;2023-03-23T09:43:39;95748.41;;;13.05;100.00
11676;BME280;5894;42.768;23.404;2023-03-23T09:46:27;95766.50;;;13.38;100.00
11676;BME280;5894;42.768;23.404;2023-03-23T09:48:59;95786.28;;;13.49;100.00
11676;BME280;5894;42.768;23.404;2023-03-23T09:51:38;95790.31;;;13.55;100.00
11676;BME280;5894;42.768;23.404;2023-03-23T09:54:12;95775.34;;;13.68;100.00
11676;BME280;5894;42.768;23.404;2023-03-23T09:56:41;95779.53;;;13.77;100.00
11676;BME280;5894;42.768;23.404;2023-03-23T09:59:14;95778.41;;;13.87;100.00
11676;BME280;5894;42.768;23.404;2023-03-23T10:01:46;95787.91;;;13.88;100.00
11676;BME280;5894;42.768;23.404;2023-03-23T10:04:23;95789.31;;;13.85;98.95
11676;BME280;5894;42.768;23.404;2023-03-23T10:06:57;95786.84;;;13.80;100.00
11676;BME280;5894;42.768;23.404;2023-03-23T10:09:25;95783.41;;;13.80;100.00
11676;BME280;5894;42.768;23.404;2023-03-23T10:12:02;95781.56;;;13.80;98.70
11676;BME280;5894;42.768;23.404;2023-03-23T10:15:09;95770.81;;;13.68;97.96
11676;BME280;5894;42.768;23.404;2023-03-23T10:17:55;95777.63;;;13.86;100.00
11676;BME280;5894;42.768;23.404;2023-03-23T10:20:32;95766.84;;;13.91;100.00
11676;BME280;5894;42.768;23.404;2023-03-23T10:23:13;95773.34;;;14.03;100.00
11676;BME280;5894;42.768;23.404;2023-03-23T10:25:42;95771.19;;;13.96;100.00
11676;BME280;5894;42.768;23.404;2023-03-23T10:28:13;95733.22;;;13.75;100.00
11676;BME280;5894;42.768;23.404;2023-03-23T10:30:45;95763.53;;;14.03;100.00
11676;BME280;5894;42.768;23.404;2023-03-23T10:33:16;95774.28;;;14.07;97.86
11676;BME280;5894;42.768;23.404;2023-03-23T10:35:48;95762.84;;;14.15;100.00
11676;BME280;5894;42.768;23.404;2023-03-23T10:38:23;95759.56;;;14.18;100.00
11676;BME280;5894;42.768;23.404;2023-03-23T10:40:54;95768.94;;;14.15;96.05
11676;BME280;5894;42.768;23.404;2023-03-23T10:43:22;95758.22;;;14.12;94.99
11676;BME280;5894;42.768;23.404;2023-03-23T10:45:53;95762.03;;;14.23;96.08
11676;BME280;5894;42.768;23.404;2023-03-23T10:48:27;95763.63;;;14.15;88.05
11676;BME280;5894;42.768;23.404;2023-03-23T10:51:01;95749.75;;;14.18;95.30
11676;BME280;5894;42.768;23.404;2023-03-23T10:53:33;95755.00;;;14.27;92.77
11676;BME280;5894;42.768;23.404;2023-03-23T10:56:01;95751.25;;;14.28;93.14
11676;BME280;5894;42.768;23.404;2023-03-23T10:58:29;95750.16;;;14.29;98.33
11676;BME280;5894;42.768;23.404;2023-03-23T11:00:57;95744.66;;;14.34;97.30
11676;BME280;5894;42.768;23.404;2023-03-23T11:03:40;95744.03;;;14.37;93.35
11676;BME280;5894;42.768;23.404;2023-03-23T11:06:09;95751.06;;;14.42;88.88
11676;BME280;5894;42.768;23.404;2023-03-23T11:08:46;95735.94;;;14.33;88.14
11676;BME280;5894;42.768;23.404;2023-03-23T11:11:16;95746.66;;;14.46;88.58
11676;BME280;5894;42.768;23.404;2023-03-23T11:13:46;95738.22;;;14.52;94.21
11676;BME280;5894;42.768;23.404;2023-03-23T11:16:23;95730.06;;;14.57;97.14
11676;BME280;5894;42.768;23.404;2023-03-23T11:18:49;95732.38;;;14.59;92.74
11676;BME280;5894;42.768;23.404;2023-03-23T11:21:20;95692.34;;;14.43;93.33
11676;BME280;5894;42.768;23.404;2023-03-23T11:23:51;95697.16;;;14.50;86.59
11676;BME280;5894;42.768;23.404;2023-03-23T11:26:21;95726.25;;;14.67;85.28
11676;BME280;5894;42.768;23.404;2023-03-23T11:28:52;95716.94;;;14.61;84.21
11676;BME280;5894;42.768;23.404;2023-03-23T11:31:22;95707.25;;;14.56;83.11
11676;BME280;5894;42.768;23.404;2023-03-23T11:33:53;95710.22;;;14.55;90.67
11676;BME280;5894;42.768;23.404;2023-03-23T11:36:29;95699.19;;;14.53;93.35
11676;BME280;5894;42.768;23.404;2023-03-23T11:38:58;95650.56;;;14.40;91.01
11676;BME280;5894;42.768;23.404;2023-03-23T11:41:32;95691.03;;;14.79;91.09
11676;BME280;5894;42.768;23.404;2023-03-23T11:44:08;95696.59;;;14.86;89.54
11676;BME280;5894;42.768;23.404;2023-03-23T11:46:41;95693.41;;;14.92;86.05
11676;BME280;5894;42.768;23.404;2023-03-23T11:49:15;95702.50;;;14.91;86.22
11676;BME280;5894;42.768;23.404;2023-03-23T11:51:47;95697.31;;;14.95;82.58
11676;BME280;5894;42.768;23.404;2023-03-23T11:54:21;95685.25;;;14.97;81.21
11676;BME280;5894;42.768;23.404;2023-03-23T11:56:50;95682.59;;;14.97;89.77
11676;BME280;5894;42.768;23.404;2023-03-23T11:59:25;95680.63;;;15.06;89.38
11676;BME280;5894;42.768;23.404;2023-03-23T12:01:56;95648.56;;;14.79;82.86
11676;BME280;5894;42.768;23.404;2023-03-23T12:04:38;95673.19;;;15.00;91.05
11676;BME280;5894;42.768;23.404;2023-03-23T12:07:17;95675.00;;;15.08;86.90
11676;BME280;5894;42.768;23.404;2023-03-23T12:09:58;95676.38;;;15.14;87.54
11676;BME280;5894;42.768;23.404;2023-03-23T12:12:33;95667.13;;;14.99;85.73
11676;BME280;5894;42.768;23.404;2023-03-23T12:15:10;95680.91;;;15.14;86.55
11676;BME280;5894;42.768;23.404;2023-03-23T12:17:51;95676.47;;;15.18;83.93
11676;BME280;5894;42.768;23.404;2023-03-23T12:20:29;95662.88;;;15.19;88.55
11676;BME280;5894;42.768;23.404;2023-03-23T12:23:07;95628.78;;;14.88;82.93
11676;BME280;5894;42.768;23.404;2023-03-23T12:25:58;95658.47;;;15.23;92.28
11676;BME280;5894;42.768;23.404;2023-03-23T12:28:35;95636.84;;;15.13;88.63
11676;BME280;5894;42.768;23.404;2023-03-23T12:31:11;95659.28;;;15.36;80.89
11676;BME280;5894;42.768;23.404;2023-03-23T12:33:48;95667.16;;;15.45;84.08
11676;BME280;5894;42.768;23.404;2023-03-23T12:36:27;95659.28;;;15.48;87.21
11676;BME280;5894;42.768;23.404;2023-03-23T12:39:33;95652.41;;;15.47;82.05
11676;BME280;5894;42.768;23.404;2023-03-23T12:42:12;95648.66;;;15.48;89.49
11676;BME280;5894;42.768;23.404;2023-03-23T12:44:46;95646.44;;;15.50;86.29
11676;BME280;5894;42.768;23.404;2023-03-23T12:47:22;95645.00;;;15.53;87.01
11676;BME280;5894;42.768;23.404;2023-03-23T12:49:55;95612.88;;;15.33;90.28
11676;BME280;5894;42.768;23.404;2023-03-23T12:52:26;95596.38;;;15.40;89.92
11676;BME280;5894;42.768;23.404;2023-03-23T12:54:59;95643.94;;;15.66;85.21
11676;BME280;5894;42.768;23.404;2023-03-23T12:57:34;95641.38;;;15.69;83.26
11676;BME280;5894;42.768;23.404;2023-03-23T13:00:06;95634.41;;;15.65;86.83
11676;BME280;5894;42.768;23.404;2023-03-23T13:02:40;95638.41;;;15.71;86.97
11676;BME280;5894;42.768;23.404;2023-03-23T13:05:11;95594.81;;;15.39;87.90
11676;BME280;5894;42.768;23.404;2023-03-23T13:07:45;95631.00;;;15.64;86.43
11676;BME280;5894;42.768;23.404;2023-03-23T13:10:20;95631.22;;;15.71;86.74
11676;BME280;5894;42.768;23.404;2023-03-23T13:12:51;95626.22;;;15.70;86.24
11676;BME280;5894;42.768;23.404;2023-03-23T13:15:27;95629.56;;;15.67;83.50
11676;BME280;5894;42.768;23.404;2023-03-23T13:18:02;95621.59;;;15.67;88.18
11676;BME280;5894;42.768;23.404;2023-03-23T13:20:39;95621.22;;;15.68;88.54
11676;BME280;5894;42.768;23.404;2023-03-23T13:23:11;95621.22;;;15.68;83.84
11676;BME280;5894;42.768;23.404;2023-03-23T13:25:48;95610.94;;;15.67;85.03
11676;BME280;5894;42.768;23.404;2023-03-23T13:28:18;95620.00;;;15.78;85.29
11676;BME280;5894;42.768;23.404;2023-03-23T13:31:02;95618.03;;;15.75;83.34
11676;BME280;5894;42.768;23.404;2023-03-23T13:33:34;95610.38;;;15.73;84.56
11676;BME280;5894;42.768;23.404;2023-03-23T13:36:05;95618.47;;;15.77;86.10
11676;BME280;5894;42.768;23.404;2023-03-23T13:38:34;95615.81;;;15.65;80.92
11676;BME280;5894;42.768;23.404;2023-03-23T13:41:07;95604.84;;;15.78;83.24